createdAt,value
2022-08-29T00:00:08.732Z,3.00
2022-08-29T00:01:08.722Z,2.90
2022-08-29T00:02:08.788Z,3.20
2022-08-29T00:03:08.891Z,2.70
2022-08-29T00:04:08.744Z,2.90
2022-08-29T00:05:08.686Z,2.80
2022-08-29T00:06:08.669Z,2.60
2022-08-29T00:07:08.660Z,2.70
2022-08-29T00:08:08.729Z,3.10
2022-08-29T00:09:08.637Z,2.60
2022-08-29T00:10:08.628Z,2.60
2022-08-29T00:11:08.614Z,2.60
2022-08-29T00:12:08.616Z,2.80
2022-08-29T00:13:08.608Z,3.20
2022-08-29T00:14:08.577Z,2.60
2022-08-29T00:15:08.565Z,2.90
2022-08-29T00:16:08.639Z,2.80
2022-08-29T00:17:08.570Z,2.70
2022-08-29T00:18:08.537Z,2.70
2022-08-29T00:19:08.525Z,3.10
2022-08-29T00:20:08.514Z,2.70
2022-08-29T00:21:08.507Z,2.90
2022-08-29T00:22:08.503Z,2.80
2022-08-29T00:23:08.502Z,2.80
2022-08-29T00:24:08.478Z,2.70
2022-08-29T00:25:08.480Z,3.10
2022-08-29T00:26:08.477Z,2.80
2022-08-29T00:27:08.432Z,3.00
2022-08-29T00:28:08.456Z,3.00
2022-08-29T00:29:08.422Z,3.30
2022-08-29T00:30:08.401Z,2.60
2022-08-29T00:31:08.419Z,2.90
2022-08-29T00:32:08.462Z,2.70
2022-08-29T00:33:08.364Z,2.70
2022-08-29T00:34:08.368Z,2.70
2022-08-29T00:35:08.348Z,2.90
2022-08-29T00:36:08.363Z,3.10
2022-08-29T00:37:08.320Z,2.60
2022-08-29T00:38:08.350Z,2.80
2022-08-29T00:39:09.316Z,2.70
2022-08-29T00:40:08.319Z,3.20
2022-08-29T00:41:08.278Z,2.70
2022-08-29T00:42:08.300Z,3.10
2022-08-29T00:43:08.268Z,3.00
2022-08-29T00:44:08.248Z,3.30
2022-08-29T00:45:08.245Z,3.30
2022-08-29T00:47:28.166Z,3.20
2022-08-29T00:48:29.133Z,2.90
2022-08-29T00:49:29.126Z,2.90
2022-08-29T00:50:29.128Z,3.00
2022-08-29T00:51:29.103Z,3.20
2022-08-29T00:52:29.111Z,3.10
2022-08-29T00:53:29.084Z,3.30
2022-08-29T00:54:29.090Z,3.30
2022-08-29T00:55:29.080Z,3.10
2022-08-29T00:56:29.069Z,2.90
2022-08-29T00:57:29.054Z,3.20
2022-08-29T00:58:29.045Z,3.30
2022-08-29T00:59:29.027Z,2.90
2022-08-29T01:00:29.006Z,3.30
2022-08-29T01:01:29.120Z,3.30
2022-08-29T01:02:29.057Z,3.20
2022-08-29T01:03:28.995Z,3.50
2022-08-29T01:04:28.974Z,3.30
2022-08-29T01:05:28.965Z,3.40
2022-08-29T01:06:28.978Z,3.40
2022-08-29T01:07:28.950Z,3.80
2022-08-29T01:08:28.936Z,3.80
2022-08-29T01:09:28.920Z,3.90
2022-08-29T01:10:28.888Z,3.30
2022-08-29T01:11:28.877Z,3.40
2022-08-29T01:12:28.887Z,3.20
2022-08-29T01:13:28.875Z,3.10
2022-08-29T01:14:28.856Z,3.40
2022-08-29T01:15:28.862Z,3.50
2022-08-29T01:16:28.856Z,3.60
2022-08-29T01:17:28.816Z,3.40
2022-08-29T01:18:28.813Z,3.20
2022-08-29T01:19:28.798Z,3.60
2022-08-29T01:20:28.798Z,3.50
2022-08-29T01:21:28.769Z,3.70
2022-08-29T01:22:28.761Z,3.70
2022-08-29T01:23:28.761Z,3.60
2022-08-29T01:24:28.733Z,3.50
2022-08-29T01:25:28.742Z,3.50
2022-08-29T01:26:29.211Z,3.50
2022-08-29T01:27:28.792Z,3.80
2022-08-29T01:28:28.715Z,3.70
2022-08-29T01:29:28.677Z,4.10
2022-08-29T01:30:28.668Z,3.70
2022-08-29T01:31:38.636Z,3.80
2022-08-29T01:32:28.678Z,3.50
2022-08-29T01:33:28.657Z,3.80
2022-08-29T01:34:28.634Z,3.70
2022-08-29T01:35:28.616Z,3.60
2022-08-29T01:36:28.608Z,3.70
2022-08-29T01:37:28.613Z,3.90
2022-08-29T01:38:28.591Z,4.00
2022-08-29T01:39:28.581Z,4.00
2022-08-29T01:40:28.669Z,3.70
2022-08-29T01:41:28.570Z,3.90
2022-08-29T01:42:28.561Z,4.00
2022-08-29T01:43:28.542Z,3.80
2022-08-29T01:44:28.527Z,3.10
2022-08-29T01:45:28.566Z,3.60
2022-08-29T01:46:28.498Z,3.70
2022-08-29T01:47:28.486Z,3.70
2022-08-29T01:48:28.486Z,3.60
2022-08-29T01:49:28.474Z,3.70
2022-08-29T01:50:28.451Z,3.60
2022-08-29T01:51:28.441Z,3.50
2022-08-29T01:52:28.431Z,3.50
2022-08-29T01:53:28.430Z,3.50
2022-08-29T01:54:28.406Z,3.60
2022-08-29T01:55:28.419Z,3.70
2022-08-29T01:56:28.384Z,3.60
2022-08-29T01:57:28.369Z,3.50
2022-08-29T01:58:28.363Z,4.00
2022-08-29T01:59:28.357Z,3.60
2022-08-29T02:00:28.336Z,3.60
2022-08-29T02:01:28.425Z,3.80
2022-08-29T02:02:28.374Z,3.90
2022-08-29T02:03:28.307Z,3.40
2022-08-29T02:04:28.317Z,3.80
2022-08-29T02:05:28.302Z,3.70
2022-08-29T02:06:28.280Z,3.70
2022-08-29T02:07:28.268Z,3.40
2022-08-29T02:08:28.261Z,3.40
2022-08-29T02:09:28.247Z,3.60
2022-08-29T02:10:28.244Z,3.80
2022-08-29T02:11:28.232Z,3.70
2022-08-29T02:12:28.221Z,3.50
2022-08-29T02:13:28.198Z,3.70
2022-08-29T02:14:28.188Z,3.70
2022-08-29T02:15:28.188Z,4.10
2022-08-29T02:16:28.428Z,3.70
2022-08-29T02:17:28.163Z,3.50
2022-08-29T02:18:28.148Z,3.60
2022-08-29T02:19:28.134Z,4.10
2022-08-29T02:20:28.118Z,3.90
2022-08-29T02:21:28.130Z,4.40
2022-08-29T02:22:28.106Z,3.50
2022-08-29T02:23:31.101Z,4.70
2022-08-29T02:24:28.072Z,3.60
2022-08-29T02:25:28.074Z,3.90
2022-08-29T02:26:28.054Z,4.00
2022-08-29T02:27:28.054Z,4.10
2022-08-29T02:28:28.032Z,4.40
2022-08-29T02:29:37.222Z,4.30
2022-08-29T02:30:28.000Z,4.10
2022-08-29T02:31:28.048Z,3.80
2022-08-29T02:32:28.088Z,4.20
2022-08-29T02:33:28.943Z,4.30
2022-08-29T02:34:27.984Z,4.20
2022-08-29T02:35:27.977Z,4.10
2022-08-29T02:36:27.986Z,3.50
2022-08-29T02:37:27.990Z,3.70
2022-08-29T02:38:27.918Z,4.00
2022-08-29T02:39:27.907Z,4.20
2022-08-29T02:40:31.662Z,4.00
2022-08-29T02:41:27.881Z,4.00
2022-08-29T02:42:27.890Z,4.10
2022-08-29T02:43:27.861Z,3.80
2022-08-29T02:44:27.850Z,4.10
2022-08-29T02:45:27.851Z,4.00
2022-08-29T02:46:27.910Z,3.80
2022-08-29T02:48:36.795Z,3.90
2022-08-29T02:49:37.766Z,4.00
2022-08-29T02:50:37.756Z,4.40
2022-08-29T02:51:37.744Z,4.20
2022-08-29T02:52:37.730Z,3.50
2022-08-29T02:53:37.744Z,4.20
2022-08-29T02:54:37.725Z,4.30
2022-08-29T02:55:37.697Z,4.20
2022-08-29T02:56:37.691Z,4.10
2022-08-29T02:57:37.673Z,4.00
2022-08-29T02:58:37.665Z,3.90
2022-08-29T02:59:37.665Z,4.00
2022-08-29T03:00:37.679Z,4.00
2022-08-29T03:01:37.725Z,4.30
2022-08-29T03:02:37.622Z,4.40
2022-08-29T03:03:37.620Z,4.30
2022-08-29T03:04:37.622Z,4.60
2022-08-29T03:05:37.595Z,4.60
2022-08-29T03:06:37.601Z,4.40
2022-08-29T03:07:37.584Z,4.80
2022-08-29T03:08:37.561Z,4.10
2022-08-29T03:09:37.542Z,4.60
2022-08-29T03:10:37.546Z,4.60
2022-08-29T03:11:37.520Z,4.20
2022-08-29T03:12:37.528Z,4.10
2022-08-29T03:13:37.785Z,4.30
2022-08-29T03:14:37.496Z,4.20
2022-08-29T03:15:37.497Z,4.50
2022-08-29T03:16:37.612Z,3.90
2022-08-29T03:17:37.464Z,4.30
2022-08-29T03:18:37.461Z,4.70
2022-08-29T03:19:37.635Z,4.70
2022-08-29T03:20:37.435Z,4.20
2022-08-29T03:21:37.411Z,4.80
2022-08-29T03:22:37.415Z,4.20
2022-08-29T03:23:37.405Z,4.10
2022-08-29T03:24:37.395Z,4.40
2022-08-29T03:25:37.372Z,4.70
2022-08-29T03:26:37.357Z,4.10
2022-08-29T03:27:37.342Z,4.40
2022-08-29T03:28:37.331Z,4.40
2022-08-29T03:29:37.341Z,4.80
2022-08-29T03:30:37.316Z,5.10
2022-08-29T03:31:37.393Z,4.70
2022-08-29T03:32:37.296Z,5.00
2022-08-29T03:33:37.294Z,4.70
2022-08-29T03:34:37.285Z,4.70
2022-08-29T03:35:37.254Z,4.80
2022-08-29T03:36:37.247Z,4.40
2022-08-29T03:37:37.229Z,4.30
2022-08-29T03:38:37.241Z,4.70
2022-08-29T03:39:37.229Z,4.70
2022-08-29T03:40:37.244Z,4.60
2022-08-29T03:41:37.210Z,4.70
2022-08-29T03:42:37.176Z,4.60
2022-08-29T03:43:37.177Z,4.50
2022-08-29T03:44:37.153Z,5.10
2022-08-29T03:45:37.162Z,4.70
2022-08-29T03:46:37.232Z,4.90
2022-08-29T03:47:37.136Z,4.80
2022-08-29T03:48:37.109Z,5.00
2022-08-29T03:49:37.096Z,4.90
2022-08-29T03:50:37.106Z,4.80
2022-08-29T03:51:37.074Z,4.30
2022-08-29T03:52:37.072Z,5.10
2022-08-29T03:53:37.062Z,4.80
2022-08-29T03:54:37.057Z,5.00
2022-08-29T03:55:37.030Z,4.80
2022-08-29T03:56:37.024Z,4.60
2022-08-29T03:57:37.015Z,4.60
2022-08-29T03:58:37.013Z,4.70
2022-08-29T03:59:36.985Z,4.70
2022-08-29T04:00:37.001Z,4.70
2022-08-29T04:01:37.051Z,4.70
2022-08-29T04:02:37.055Z,5.30
2022-08-29T04:03:36.968Z,4.40
2022-08-29T04:04:36.933Z,4.90
2022-08-29T04:05:36.941Z,4.70
2022-08-29T04:06:36.945Z,4.80
2022-08-29T04:07:36.903Z,5.00
2022-08-29T04:08:36.891Z,4.80
2022-08-29T04:09:36.880Z,4.70
2022-08-29T04:10:36.878Z,4.80
2022-08-29T04:11:36.871Z,4.80
2022-08-29T04:12:36.871Z,5.00
2022-08-29T04:13:36.844Z,5.10
2022-08-29T04:14:36.834Z,4.90
2022-08-29T04:15:36.827Z,4.70
2022-08-29T04:16:36.815Z,4.90
2022-08-29T04:17:36.817Z,5.20
2022-08-29T04:18:36.778Z,5.20
2022-08-29T04:19:36.763Z,5.30
2022-08-29T04:20:36.766Z,5.00
2022-08-29T04:21:36.747Z,4.40
2022-08-29T04:22:36.729Z,4.50
2022-08-29T04:23:36.741Z,4.10
2022-08-29T04:24:36.708Z,4.70
2022-08-29T04:25:37.355Z,4.80
2022-08-29T04:26:37.629Z,4.50
2022-08-29T04:27:36.679Z,4.80
2022-08-29T04:28:36.677Z,4.90
2022-08-29T04:29:36.652Z,4.60
2022-08-29T04:30:36.639Z,4.60
2022-08-29T04:31:36.891Z,5.00
2022-08-29T04:32:36.617Z,4.70
2022-08-29T04:33:36.620Z,5.30
2022-08-29T04:34:36.612Z,4.70
2022-08-29T04:35:36.585Z,4.30
2022-08-29T04:36:36.590Z,4.50
2022-08-29T04:37:36.577Z,4.80
2022-08-29T04:38:36.551Z,5.00
2022-08-29T04:39:36.539Z,5.10
2022-08-29T04:40:36.564Z,5.50
2022-08-29T04:41:36.520Z,4.90
2022-08-29T04:42:36.798Z,4.60
2022-08-29T04:43:36.498Z,5.00
2022-08-29T04:44:36.499Z,4.50
2022-08-29T04:45:36.488Z,5.10
2022-08-29T04:46:36.542Z,5.00
2022-08-29T04:47:36.479Z,5.00
2022-08-29T04:49:45.396Z,4.00
2022-08-29T04:50:46.384Z,4.90
2022-08-29T04:51:46.374Z,5.30
2022-08-29T04:52:46.387Z,4.60
2022-08-29T04:53:46.350Z,5.00
2022-08-29T04:54:46.346Z,5.00
2022-08-29T04:55:46.349Z,4.60
2022-08-29T04:56:47.098Z,4.90
2022-08-29T04:57:46.325Z,4.80
2022-08-29T04:58:46.306Z,4.80
2022-08-29T04:59:46.291Z,5.20
2022-08-29T05:00:46.279Z,5.80
2022-08-29T05:01:46.337Z,5.30
2022-08-29T05:02:46.340Z,5.70
2022-08-29T05:03:46.246Z,5.30
2022-08-29T05:04:46.247Z,5.30
2022-08-29T05:05:46.220Z,5.60
2022-08-29T05:06:46.213Z,5.80
2022-08-29T05:07:46.218Z,5.20
2022-08-29T05:08:46.187Z,5.00
2022-08-29T05:09:46.186Z,5.50
2022-08-29T05:10:46.182Z,5.40
2022-08-29T05:11:46.161Z,5.90
2022-08-29T05:12:46.164Z,5.40
2022-08-29T05:13:46.138Z,5.30
2022-08-29T05:14:46.137Z,4.80
2022-08-29T05:15:46.144Z,5.20
2022-08-29T05:16:46.120Z,5.50
2022-08-29T05:17:46.113Z,5.40
2022-08-29T05:18:46.081Z,5.30
2022-08-29T05:19:46.084Z,5.40
2022-08-29T05:20:46.081Z,5.60
2022-08-29T05:21:46.049Z,5.10
2022-08-29T05:22:46.040Z,5.40
2022-08-29T05:23:46.024Z,4.90
2022-08-29T05:24:46.029Z,5.40
2022-08-29T05:25:46.006Z,5.60
2022-08-29T05:26:45.993Z,5.80
2022-08-29T05:27:45.986Z,5.50
2022-08-29T05:28:45.993Z,5.50
2022-08-29T05:29:45.958Z,5.50
2022-08-29T05:30:46.018Z,5.40
2022-08-29T05:31:45.960Z,5.60
2022-08-29T05:32:45.936Z,6.00
2022-08-29T05:33:45.943Z,5.80
2022-08-29T05:34:45.942Z,5.80
2022-08-29T05:35:45.893Z,5.60
2022-08-29T05:36:45.883Z,6.40
2022-08-29T05:37:45.874Z,6.00
2022-08-29T05:38:45.880Z,6.20
2022-08-29T05:39:45.870Z,6.80
2022-08-29T05:40:45.851Z,6.10
2022-08-29T05:41:45.840Z,6.10
2022-08-29T05:42:45.819Z,6.60
2022-08-29T05:43:45.807Z,6.20
2022-08-29T05:44:45.836Z,6.70
2022-08-29T05:45:45.786Z,6.90
2022-08-29T05:46:46.291Z,5.50
2022-08-29T05:47:45.788Z,6.10
2022-08-29T05:48:45.906Z,6.80
2022-08-29T05:49:45.747Z,6.70
2022-08-29T05:50:46.382Z,6.80
2022-08-29T05:51:45.749Z,7.00
2022-08-29T05:52:45.705Z,6.50
2022-08-29T05:53:45.694Z,6.50
2022-08-29T05:54:45.720Z,6.60
2022-08-29T05:55:45.684Z,6.50
2022-08-29T05:56:45.660Z,6.70
2022-08-29T05:57:45.664Z,6.50
2022-08-29T05:58:45.639Z,6.50
2022-08-29T05:59:45.650Z,7.00
2022-08-29T06:00:45.770Z,7.70
2022-08-29T06:01:45.607Z,6.90
2022-08-29T06:02:45.782Z,6.80
2022-08-29T06:06:26.954Z,7.10
2022-08-29T06:06:45.266Z,6.80
2022-08-29T06:06:45.678Z,7.20
2022-08-29T06:08:17.082Z,7.10
2022-08-29T06:13:06.615Z,6.10
2022-08-29T06:15:09.748Z,6.90
2022-08-29T06:28:34.985Z,7.00
2022-08-29T06:34:03.441Z,6.60
2022-08-29T06:44:04.787Z,6.50
2022-08-29T06:48:29.685Z,6.60
2022-08-29T06:49:12.264Z,6.40
2022-08-29T06:49:18.124Z,6.20
2022-08-29T06:49:18.126Z,6.50
2022-08-29T06:51:11.754Z,5.90
2022-08-29T06:54:28.650Z,6.50
2022-08-29T06:54:31.463Z,6.10
2022-08-29T06:58:20.318Z,7.10
2022-08-29T07:01:26.535Z,5.90
2022-08-29T07:02:20.491Z,6.00
2022-08-29T07:06:23.305Z,4.40
2022-08-29T07:07:59.600Z,5.40
2022-08-29T07:08:38.016Z,5.80
2022-08-29T07:09:39.181Z,6.10
2022-08-29T07:10:34.241Z,5.80
2022-08-29T07:11:30.270Z,5.50
2022-08-29T07:12:25.120Z,6.20
2022-08-29T07:13:23.181Z,5.90
2022-08-29T07:14:23.181Z,5.70
2022-08-29T07:15:23.170Z,5.10
2022-08-29T07:16:23.229Z,5.50
2022-08-29T07:17:26.084Z,5.30
2022-08-29T07:18:23.125Z,5.20
2022-08-29T07:19:23.109Z,5.40
2022-08-29T07:20:23.113Z,5.40
2022-08-29T07:21:23.359Z,5.30
2022-08-29T07:22:44.083Z,5.60
2022-08-29T07:23:23.080Z,5.60
2022-08-29T07:24:24.996Z,5.70
2022-08-29T07:25:23.043Z,5.40
2022-08-29T07:26:23.030Z,5.50
2022-08-29T07:27:23.169Z,5.30
2022-08-29T07:28:23.047Z,5.50
2022-08-29T07:29:23.019Z,5.40
2022-08-29T07:30:23.153Z,5.20
2022-08-29T07:31:23.080Z,5.70
2022-08-29T07:32:25.888Z,5.90
2022-08-29T07:33:22.979Z,5.40
2022-08-29T07:34:23.001Z,4.70
2022-08-29T07:35:30.468Z,5.40
2022-08-29T07:36:23.977Z,5.00
2022-08-29T07:37:22.913Z,4.90
2022-08-29T07:38:22.912Z,5.00
2022-08-29T07:39:23.055Z,5.20
2022-08-29T07:41:31.349Z,4.60
2022-08-29T07:42:31.477Z,4.60
2022-08-29T07:43:31.658Z,5.50
2022-08-29T07:44:34.519Z,5.30
2022-08-29T07:45:31.301Z,4.90
2022-08-29T07:46:31.423Z,4.90
2022-08-29T07:47:31.297Z,5.20
2022-08-29T07:48:31.300Z,4.50
2022-08-29T07:49:40.582Z,4.40
2022-08-29T07:50:32.313Z,5.30
2022-08-29T07:51:31.242Z,5.00
2022-08-29T07:52:31.254Z,4.90
2022-08-29T07:53:55.551Z,5.60
2022-08-29T07:55:42.797Z,5.60
2022-08-29T07:57:11.465Z,4.90
2022-08-29T07:57:49.122Z,4.90
2022-08-29T07:59:12.156Z,4.80
2022-08-29T08:00:09.793Z,4.50
2022-08-29T08:00:48.123Z,4.10
2022-08-29T08:01:45.079Z,4.10
2022-08-29T08:02:51.037Z,4.10
2022-08-29T08:03:47.630Z,4.20
2022-08-29T08:07:02.286Z,4.40
2022-08-29T08:08:15.735Z,3.90
2022-08-29T08:10:40.925Z,3.30
2022-08-29T08:11:11.633Z,3.80
2022-08-29T08:12:08.343Z,4.40
2022-08-29T08:13:11.659Z,4.60
2022-08-29T08:14:07.543Z,4.20
2022-08-29T08:15:06.446Z,4.40
2022-08-29T08:16:06.417Z,4.00
2022-08-29T08:17:06.480Z,4.40
2022-08-29T08:18:06.410Z,3.80
2022-08-29T08:19:06.418Z,4.00
2022-08-29T08:20:06.374Z,4.10
2022-08-29T08:21:06.358Z,4.00
2022-08-29T08:22:06.374Z,4.10
2022-08-29T08:23:08.998Z,3.40
2022-08-29T08:24:06.351Z,3.70
2022-08-29T08:25:06.326Z,3.60
2022-08-29T08:26:06.370Z,3.20
2022-08-29T08:27:06.361Z,3.40
2022-08-29T08:28:06.288Z,3.70
2022-08-29T08:29:06.285Z,3.70
2022-08-29T08:30:06.391Z,3.40
2022-08-29T08:31:06.808Z,4.10
2022-08-29T08:32:06.238Z,3.60
2022-08-29T08:33:06.355Z,3.60
2022-08-29T08:34:06.223Z,4.10
2022-08-29T08:35:06.295Z,3.00
2022-08-29T08:36:06.195Z,4.00
2022-08-29T08:37:06.237Z,3.60
2022-08-29T08:38:06.181Z,3.50
2022-08-29T08:39:06.162Z,3.80
2022-08-29T08:40:06.291Z,3.60
2022-08-29T08:41:06.159Z,3.00
2022-08-29T08:42:06.137Z,3.20
2022-08-29T08:43:06.121Z,3.50
2022-08-29T08:44:06.961Z,3.30
2022-08-29T08:45:06.116Z,3.00
2022-08-29T08:46:06.107Z,3.30
2022-08-29T08:47:06.077Z,3.20
2022-08-29T08:48:06.223Z,3.30
2022-08-29T08:49:06.219Z,3.10
2022-08-29T08:50:06.047Z,3.50
2022-08-29T08:51:06.054Z,3.60
2022-08-29T08:52:06.035Z,3.60
2022-08-29T08:53:06.411Z,3.70
2022-08-29T08:54:06.003Z,3.40
2022-08-29T08:55:06.037Z,3.20
2022-08-29T08:56:05.984Z,3.10
2022-08-29T08:57:05.996Z,3.50
2022-08-29T08:58:05.972Z,3.40
2022-08-29T08:59:05.943Z,3.50
2022-08-29T09:00:05.946Z,3.70
2022-08-29T09:01:06.160Z,3.60
2022-08-29T09:02:07.348Z,3.00
2022-08-29T09:03:05.901Z,3.40
2022-08-29T09:04:05.958Z,3.40
2022-08-29T09:05:05.909Z,3.40
2022-08-29T09:06:05.893Z,3.30
2022-08-29T09:07:05.860Z,3.30
2022-08-29T09:08:05.852Z,3.30
2022-08-29T09:09:05.987Z,3.10
2022-08-29T09:10:05.979Z,3.00
2022-08-29T09:11:05.916Z,3.30
2022-08-29T09:12:06.352Z,2.90
2022-08-29T09:13:05.826Z,3.10
2022-08-29T09:14:05.840Z,2.70
2022-08-29T09:15:06.869Z,2.30
2022-08-29T09:16:05.856Z,2.60
2022-08-29T09:17:05.748Z,2.80
2022-08-29T09:18:05.751Z,2.90
2022-08-29T09:19:05.801Z,2.30
2022-08-29T09:20:05.738Z,2.70
2022-08-29T09:21:10.073Z,2.60
2022-08-29T09:22:06.728Z,2.40
2022-08-29T09:23:05.729Z,2.50
2022-08-29T09:24:05.675Z,2.90
2022-08-29T09:25:05.661Z,2.90
2022-08-29T09:26:05.668Z,2.70
2022-08-29T09:27:05.670Z,2.90
2022-08-29T09:28:05.645Z,3.00
2022-08-29T09:29:05.618Z,2.40
2022-08-29T09:30:05.614Z,2.80
2022-08-29T09:31:05.616Z,2.70
2022-08-29T09:32:05.665Z,2.30
2022-08-29T09:33:05.639Z,3.10
2022-08-29T09:34:05.569Z,2.30
2022-08-29T09:35:08.821Z,2.30
2022-08-29T09:36:05.545Z,2.50
2022-08-29T09:37:05.530Z,2.80
2022-08-29T09:38:05.580Z,2.60
2022-08-29T09:39:05.548Z,2.50
2022-08-29T09:40:06.547Z,2.40
2022-08-29T09:41:05.517Z,2.70
2022-08-29T09:42:08.763Z,2.20
2022-08-29T09:43:05.482Z,2.30
2022-08-29T09:44:05.472Z,2.20
2022-08-29T09:45:05.462Z,2.20
2022-08-29T09:46:05.645Z,2.10
2022-08-29T09:47:05.446Z,2.30
2022-08-29T09:48:05.487Z,2.30
2022-08-29T09:49:05.484Z,1.90
2022-08-29T09:50:05.415Z,2.00
2022-08-29T09:51:05.517Z,2.30
2022-08-29T09:52:07.414Z,2.50
2022-08-29T09:53:10.080Z,2.40
2022-08-29T22:46:07.728Z,1.70
2022-08-29T22:47:07.675Z,1.40
2022-08-29T22:48:07.656Z,1.60
2022-08-29T22:49:07.659Z,1.80
2022-08-29T22:50:07.657Z,1.90
2022-08-29T22:51:07.618Z,1.80
2022-08-29T22:52:09.321Z,2.00
2022-08-29T22:53:07.608Z,1.70
2022-08-29T22:54:07.622Z,1.80
2022-08-29T22:55:07.572Z,1.80
2022-08-29T22:56:07.573Z,1.80
2022-08-29T22:57:07.570Z,1.70
2022-08-29T22:58:07.554Z,1.70
2022-08-29T22:59:07.541Z,2.00
2022-08-29T23:00:07.530Z,1.70
2022-08-29T23:01:07.592Z,1.70
2022-08-29T23:02:07.502Z,1.70
2022-08-29T23:03:07.547Z,1.90
2022-08-29T23:04:07.491Z,1.90
2022-08-29T23:05:09.779Z,1.90
2022-08-29T23:06:07.489Z,1.70
2022-08-29T23:07:07.456Z,1.80
2022-08-29T23:08:07.450Z,1.90
2022-08-29T23:09:07.426Z,1.60
2022-08-29T23:10:07.417Z,1.80
2022-08-29T23:11:07.414Z,1.80
2022-08-29T23:12:07.410Z,1.90
2022-08-29T23:13:07.391Z,1.80
2022-08-29T23:14:07.387Z,1.70
2022-08-29T23:15:07.357Z,1.90
2022-08-29T23:16:07.478Z,1.80
2022-08-29T23:17:07.342Z,2.00
2022-08-29T23:18:07.334Z,1.80
2022-08-29T23:19:07.313Z,1.70
2022-08-29T23:20:07.313Z,2.00
2022-08-29T23:21:07.299Z,1.70
2022-08-29T23:22:07.303Z,1.80
2022-08-29T23:23:08.607Z,2.30
2022-08-29T23:24:07.264Z,1.70
2022-08-29T23:25:07.266Z,1.80
2022-08-29T23:26:07.257Z,1.90
2022-08-29T23:27:07.228Z,1.70
2022-08-29T23:28:07.235Z,1.60
2022-08-29T23:29:07.218Z,1.80
2022-08-29T23:30:07.199Z,2.30
2022-08-29T23:31:07.236Z,1.80
2022-08-29T23:32:07.192Z,2.00
2022-08-29T23:33:07.159Z,2.10
2022-08-29T23:34:07.158Z,2.40
2022-08-29T23:35:07.148Z,2.20
2022-08-29T23:36:07.157Z,1.80
2022-08-29T23:37:07.115Z,1.90
2022-08-29T23:38:07.630Z,1.90
2022-08-29T23:39:07.113Z,2.00
2022-08-29T23:40:07.165Z,2.10
2022-08-29T23:41:07.095Z,2.00
2022-08-29T23:42:07.065Z,2.10
2022-08-29T23:43:07.067Z,2.00
2022-08-29T23:44:07.042Z,2.00
2022-08-29T23:45:07.027Z,1.80
2022-08-29T23:46:07.061Z,2.10
2022-08-29T23:47:07.024Z,2.00
2022-08-29T23:48:07.021Z,2.30
2022-08-29T23:49:06.984Z,2.10
2022-08-29T23:50:07.024Z,2.50
2022-08-29T23:51:06.973Z,2.00
2022-08-29T23:52:06.958Z,2.20
2022-08-29T23:53:06.955Z,2.00
2022-08-29T23:54:06.947Z,2.10
2022-08-29T23:55:06.919Z,2.50
2022-08-29T23:56:06.914Z,2.50
2022-08-29T23:57:06.897Z,2.20
2022-08-29T23:58:06.912Z,2.40
2022-08-29T23:59:06.877Z,2.30
